Terminal Aerodrome Forecast
Issued by NWS Blacksburg, VA

Home | Current Version | Previous Version | Text Only | Print | Product List | Glossary On
Versions: 1 2 3 4 5 6 7 8 9 10 11 12 13 14 15 16
000
FTUS41 KRNK 231140
TAFLYH
TAF
KLYH 231140Z 2312/2412 13007KT P6SM BKN025 OVC045
     FM231500 10009KT P6SM VCSH OVC020
     FM231800 13012KT 6SM -RA OVC025
     FM232300 14009KT 1SM +SHRA OVC025 WS020/16040KT
     FM240300 15009KT 3SM SHRA OVC030
     FM240600 20004KT P6SM BKN050
     FM240900 VRB03KT P6SM SCT050=

USA.gov is the U.S. government's official web portal to all federal, state and local government web resources and services.